Time;durP1;ratioP1;P1;durP2;ratioP2;P2;SDS_P1;SDS_P2;PMS_P1;PMS_P2;Temp;Humidity;BMP_temperature;BMP_pressure;BME280_temperature;BME280_humidity;BME280_pressure;Samples;Min_cycle;Max_cycle;Signal;HPM_P1;HPM_P2
2022/12/03 00:01:44;;;;;;;6.90;2.27;;;12.90;99.90;;;;;;5032410;28;20192;-75
2022/12/03 00:04:10;;;;;;;19.00;2.70;;;12.90;99.90;;;;;;5027325;28;20246;-75
2022/12/03 00:06:37;;;;;;;21.40;2.70;;;12.90;99.90;;;;;;5029129;28;20184;-75
2022/12/03 00:09:04;;;;;;;9.93;2.30;;;12.80;99.90;;;;;;5020763;28;20243;-75
2022/12/03 00:11:31;;;;;;;14.47;2.60;;;12.80;99.90;;;;;;5032464;28;20273;-75
2022/12/03 00:13:57;;;;;;;16.67;2.73;;;12.80;99.90;;;;;;5003546;28;20220;-75
2022/12/03 00:16:24;;;;;;;17.57;2.50;;;12.80;99.90;;;;;;5028461;28;20214;-75
2022/12/03 00:18:50;;;;;;;11.30;2.57;;;12.80;99.90;;;;;;5011877;28;20811;-75
2022/12/03 00:21:17;;;;;;;18.57;2.33;;;12.80;99.90;;;;;;5035352;28;20306;-75
2022/12/03 00:23:44;;;;;;;12.73;2.60;;;12.80;99.90;;;;;;5020603;28;20254;-75
2022/12/03 00:26:10;;;;;;;26.20;2.60;;;12.80;99.90;;;;;;5028470;28;20181;-75
2022/12/03 00:28:36;;;;;;;14.07;2.73;;;12.70;99.90;;;;;;5028909;28;20679;-75
2022/12/03 00:31:03;;;;;;;10.90;2.07;;;12.80;99.90;;;;;;5027522;28;20188;-76
2022/12/03 00:33:30;;;;;;;15.43;3.00;;;12.80;99.90;;;;;;5022337;28;20193;-75
2022/12/03 00:35:57;;;;;;;15.07;2.37;;;12.80;99.90;;;;;;5007301;28;20225;-75
2022/12/03 00:38:24;;;;;;;16.70;2.90;;;12.70;99.90;;;;;;5026540;28;20203;-75
2022/12/03 00:40:50;;;;;;;18.00;2.70;;;12.80;99.90;;;;;;5034586;28;20192;-75
2022/12/03 00:43:19;;;;;;;11.33;2.27;;;12.80;99.90;;;;;;5020817;28;20203;-75
2022/12/03 00:45:45;;;;;;;15.33;2.60;;;12.80;99.90;;;;;;5009770;28;20194;-75
2022/12/03 00:48:12;;;;;;;18.00;2.87;;;12.80;99.90;;;;;;5027731;28;20248;-75
2022/12/03 00:50:39;;;;;;;15.57;2.60;;;12.80;99.90;;;;;;5032600;28;20199;-75
2022/12/03 00:53:06;;;;;;;21.43;2.73;;;12.80;99.90;;;;;;5025491;28;20196;-75
2022/12/03 00:55:32;;;;;;;11.30;2.30;;;12.80;99.90;;;;;;5021159;28;20625;-75
2022/12/03 00:57:59;;;;;;;13.47;2.67;;;12.80;99.90;;;;;;5021909;28;20940;-75
2022/12/03 01:00:29;;;;;;;12.77;2.53;;;12.80;99.90;;;;;;5055372;28;20220;-76
2022/12/03 01:02:55;;;;;;;15.17;3.20;;;12.80;99.90;;;;;;5010504;28;20172;-76
2022/12/03 01:05:22;;;;;;;9.93;2.77;;;12.80;99.90;;;;;;5029817;28;20284;-76
2022/12/03 01:07:49;;;;;;;12.17;2.40;;;12.80;99.90;;;;;;5042213;28;20759;-77
2022/12/03 01:10:16;;;;;;;17.70;2.63;;;12.80;99.90;;;;;;5015064;28;20206;-76
2022/12/03 01:12:43;;;;;;;9.80;2.40;;;12.80;99.90;;;;;;5018958;28;20856;-76
2022/12/03 01:15:11;;;;;;;13.47;2.73;;;12.80;99.90;;;;;;5024054;28;20212;-76
2022/12/03 01:17:38;;;;;;;15.20;2.63;;;12.80;99.90;;;;;;5027396;28;20184;-76
2022/12/03 01:20:06;;;;;;;15.37;2.57;;;12.80;99.90;;;;;;5026538;28;20568;-76
2022/12/03 01:22:33;;;;;;;17.63;2.70;;;12.80;99.90;;;;;;5026301;28;20788;-76
2022/12/03 01:25:00;;;;;;;15.37;2.57;;;12.80;99.90;;;;;;5007847;28;20192;-76
2022/12/03 01:27:27;;;;;;;20.27;3.37;;;12.70;99.90;;;;;;5023640;28;20185;-76
2022/12/03 01:29:54;;;;;;;17.57;2.37;;;12.70;99.90;;;;;;5010292;28;20720;-76
2022/12/03 01:32:21;;;;;;;17.13;2.57;;;12.70;99.90;;;;;;5042234;28;21931;-76
2022/12/03 01:34:54;;;;;;;10.97;2.07;;;12.70;99.90;;;;;;5028758;28;20295;-77
2022/12/03 01:37:24;;;;;;;20.53;2.93;;;12.70;99.90;;;;;;5025090;28;20226;-76
2022/12/03 01:39:51;;;;;;;19.67;2.73;;;12.70;99.90;;;;;;5028458;28;20188;-76
2022/12/03 01:42:32;;;;;;;11.50;2.20;;;12.70;99.90;;;;;;5020233;28;20189;-76
2022/12/03 01:45:00;;;;;;;17.13;2.63;;;12.70;99.90;;;;;;5020038;28;20196;-76
2022/12/03 01:47:34;;;;;;;11.83;2.00;;;12.60;99.90;;;;;;5023084;28;20612;-76
2022/12/03 01:50:26;;;;;;;14.53;2.13;;;12.60;99.90;;;;;;5030447;28;20192;-76
2022/12/03 01:52:59;;;;;;;9.50;2.00;;;12.60;99.90;;;;;;5017986;28;20197;-76
2022/12/03 01:55:26;;;;;;;13.37;2.33;;;12.60;99.90;;;;;;5027568;28;20250;-76
2022/12/03 01:58:01;;;;;;;10.47;2.33;;;12.60;99.90;;;;;;5005244;28;20610;-76
2022/12/03 02:00:29;;;;;;;16.00;2.33;;;12.60;99.90;;;;;;5025566;28;20213;-76
2022/12/03 02:03:01;;;;;;;14.10;2.50;;;12.60;99.90;;;;;;5026530;28;20186;-76
2022/12/03 02:05:31;;;;;;;14.23;2.03;;;12.60;99.90;;;;;;5009479;28;20202;-76
2022/12/03 02:07:58;;;;;;;16.80;2.43;;;12.60;99.90;;;;;;4999498;28;20228;-76
2022/12/03 02:10:36;;;;;;;12.07;2.13;;;12.50;99.90;;;;;;5027072;28;20235;-76
2022/12/03 02:13:09;;;;;;;14.33;2.20;;;12.50;99.90;;;;;;5030052;28;20199;-76
2022/12/03 02:15:38;;;;;;;21.47;2.40;;;12.50;99.90;;;;;;5026676;28;20277;-76
2022/12/03 02:18:08;;;;;;;9.30;2.40;;;12.50;99.90;;;;;;5021129;28;20184;-76
2022/12/03 02:20:59;;;;;;;13.23;2.20;;;12.50;99.90;;;;;;5016989;28;20307;-76
2022/12/03 02:23:52;;;;;;;16.07;3.03;;;12.50;99.90;;;;;;5027177;28;20186;-76
2022/12/03 02:26:18;;;;;;;14.23;2.63;;;12.50;99.90;;;;;;5010012;28;20245;-76
2022/12/03 02:28:45;;;;;;;19.50;2.97;;;12.50;99.90;;;;;;5025204;28;20593;-76
2022/12/03 02:31:11;;;;;;;21.40;3.77;;;12.50;99.90;;;;;;5011086;28;20282;-76
2022/12/03 02:33:38;;;;;;;17.03;2.40;;;12.40;99.90;;;;;;5008175;28;20250;-76
2022/12/03 02:36:05;;;;;;;13.83;2.70;;;12.40;99.90;;;;;;5025263;28;20527;-76
2022/12/03 02:38:34;;;;;;;16.57;2.53;;;12.40;99.90;;;;;;5023258;28;20212;-76
2022/12/03 02:41:07;;;;;;;12.93;2.60;;;12.40;99.90;;;;;;5008581;28;20185;-76
2022/12/03 02:43:33;;;;;;;13.80;2.57;;;12.40;99.90;;;;;;5059717;28;20176;-76
2022/12/03 02:46:03;;;;;;;10.40;2.20;;;12.30;99.90;;;;;;5027101;28;20258;-76
2022/12/03 02:48:35;;;;;;;20.10;2.77;;;12.30;99.90;;;;;;5002269;28;21074;-76
2022/12/03 02:51:07;;;;;;;12.53;2.27;;;12.30;99.90;;;;;;5015944;28;20363;-77
2022/12/03 02:53:47;;;;;;;19.70;2.93;;;12.30;99.90;;;;;;5028063;28;20176;-76
2022/12/03 02:56:20;;;;;;;12.30;2.40;;;12.30;99.90;;;;;;5026805;28;20237;-76
2022/12/03 02:58:51;;;;;;;15.03;2.10;;;12.30;99.90;;;;;;5025356;28;20271;-77
2022/12/03 03:01:18;;;;;;;14.20;2.40;;;12.30;99.90;;;;;;5021100;28;20669;-76
2022/12/03 03:03:47;;;;;;;13.30;2.13;;;12.30;99.90;;;;;;5010258;28;20179;-76
2022/12/03 03:06:15;;;;;;;15.53;2.57;;;12.30;99.90;;;;;;5043372;28;20207;-76
2022/12/03 03:08:42;;;;;;;14.83;2.37;;;12.30;99.90;;;;;;5027194;28;20281;-76
2022/12/03 03:11:10;;;;;;;12.60;2.50;;;12.30;99.90;;;;;;5037110;28;20197;-76
2022/12/03 03:13:38;;;;;;;8.50;1.97;;;12.30;99.90;;;;;;4998381;28;20184;-76
2022/12/03 03:16:07;;;;;;;13.93;2.27;;;12.30;99.90;;;;;;5018352;28;20570;-76
2022/12/03 03:18:35;;;;;;;18.40;2.40;;;12.30;99.90;;;;;;5007019;28;20653;-75
2022/12/03 03:21:02;;;;;;;10.63;2.13;;;12.30;99.90;;;;;;5047568;28;20600;-76
2022/12/03 03:23:29;;;;;;;15.40;2.37;;;12.30;99.90;;;;;;5023003;28;20192;-76
2022/12/03 03:26:07;;;;;;;12.33;3.03;;;12.30;99.90;;;;;;5023990;28;20197;-76
2022/12/03 03:28:38;;;;;;;13.30;2.37;;;12.20;99.90;;;;;;5025225;28;20287;-76
2022/12/03 03:31:08;;;;;;;20.57;2.93;;;12.20;99.90;;;;;;5030976;28;20287;-76
2022/12/03 03:33:37;;;;;;;16.83;2.60;;;12.20;99.90;;;;;;5021890;28;20564;-76
2022/12/03 03:36:04;;;;;;;8.70;2.40;;;12.20;99.90;;;;;;5029302;28;20366;-76
2022/12/03 03:38:31;;;;;;;14.27;2.63;;;12.20;99.90;;;;;;5012741;28;20176;-76
2022/12/03 03:41:02;;;;;;;18.03;2.53;;;12.20;99.90;;;;;;5025108;28;20544;-76
2022/12/03 03:43:33;;;;;;;18.60;2.67;;;12.20;99.90;;;;;;5029280;28;20618;-76
2022/12/03 03:46:03;;;;;;;16.60;2.60;;;12.20;99.90;;;;;;5030922;28;20274;-76
2022/12/03 03:48:30;;;;;;;7.67;1.80;;;12.20;99.90;;;;;;5028674;28;20269;-76
2022/12/03 03:50:57;;;;;;;15.03;2.43;;;12.20;99.90;;;;;;5017170;28;20201;-76
2022/12/03 03:53:24;;;;;;;11.50;2.43;;;12.20;99.90;;;;;;5029013;28;20515;-76
2022/12/03 03:55:51;;;;;;;11.40;2.57;;;12.20;99.90;;;;;;5029266;28;20216;-76
2022/12/03 03:58:17;;;;;;;14.07;2.30;;;12.30;99.90;;;;;;5029214;28;20173;-76
2022/12/03 04:00:45;;;;;;;16.37;2.10;;;12.30;99.90;;;;;;5026769;28;20215;-76
2022/12/03 04:03:12;;;;;;;10.80;2.40;;;12.20;99.90;;;;;;5008779;28;20190;-76
2022/12/03 04:05:40;;;;;;;12.17;2.40;;;12.20;99.90;;;;;;5017988;28;20283;-76
2022/12/03 04:08:06;;;;;;;12.80;2.13;;;12.20;99.90;;;;;;5028843;28;20718;-76
2022/12/03 04:13:18;;;;;;;14.37;2.30;;;12.30;99.90;;;;;;5029816;28;20184;-76
2022/12/03 04:15:46;;;;;;;13.93;2.30;;;12.20;99.90;;;;;;5024751;28;20319;-76
2022/12/03 04:23:50;;;;;;;9.43;2.23;;;12.30;99.90;;;;;;5010708;28;20283;-76
2022/12/03 04:29:03;;;;;;;15.80;2.27;;;12.30;99.90;;;;;;5027792;28;20656;-76
2022/12/03 04:37:00;;;;;;;14.13;2.67;;;12.30;99.90;;;;;;5030141;28;20168;-76
2022/12/03 04:39:27;;;;;;;17.87;2.30;;;12.20;99.90;;;;;;5026534;28;20188;-76
2022/12/03 04:41:54;;;;;;;11.00;2.30;;;12.20;99.90;;;;;;5043970;28;20851;-76
2022/12/03 04:44:32;;;;;;;19.10;2.53;;;12.20;99.90;;;;;;5028713;28;20215;-76
2022/12/03 04:47:12;;;;;;;18.77;2.77;;;12.20;99.90;;;;;;5028771;28;20180;-75
2022/12/03 04:49:45;;;;;;;11.60;2.23;;;12.20;99.90;;;;;;5061305;28;20191;-76
2022/12/03 04:52:14;;;;;;;11.00;2.53;;;12.20;99.90;;;;;;5027385;28;20271;-76
2022/12/03 04:54:42;;;;;;;9.37;2.13;;;12.20;99.90;;;;;;5024223;28;20286;-76
2022/12/03 04:57:09;;;;;;;13.53;2.53;;;12.30;99.90;;;;;;5023791;28;20808;-76
2022/12/03 04:59:38;;;;;;;9.93;2.03;;;12.30;99.90;;;;;;4999751;28;20188;-76
2022/12/03 05:02:05;;;;;;;8.73;1.67;;;12.30;99.90;;;;;;5037602;28;20221;-76
2022/12/03 05:04:32;;;;;;;9.50;1.80;;;12.30;99.90;;;;;;5015313;28;20196;-76
2022/12/03 05:06:58;;;;;;;9.90;2.30;;;12.30;99.90;;;;;;5028073;28;20450;-76
2022/12/03 05:09:25;;;;;;;10.43;2.10;;;12.30;99.90;;;;;;5025197;28;20216;-76
2022/12/03 05:11:51;;;;;;;8.97;1.90;;;12.30;99.90;;;;;;5029294;28;20192;-76
2022/12/03 05:14:19;;;;;;;7.57;1.90;;;12.30;99.90;;;;;;5029065;28;20258;-76
2022/12/03 05:16:46;;;;;;;14.73;2.17;;;12.30;99.90;;;;;;5008065;28;20191;-76
2022/12/03 05:19:13;;;;;;;9.60;2.57;;;12.30;99.90;;;;;;5029460;28;20594;-76
2022/12/03 05:21:39;;;;;;;11.87;2.20;;;12.30;99.90;;;;;;5025063;28;20196;-76
2022/12/03 05:24:06;;;;;;;12.23;2.40;;;12.30;99.90;;;;;;5024693;28;20227;-76
2022/12/03 05:26:32;;;;;;;11.70;2.03;;;12.30;99.90;;;;;;5022240;28;20198;-76
2022/12/03 05:28:59;;;;;;;16.50;2.30;;;12.30;99.90;;;;;;5020804;28;20199;-76
2022/12/03 05:31:26;;;;;;;16.93;2.73;;;12.30;99.90;;;;;;5025401;28;20605;-76
2022/12/03 05:33:53;;;;;;;10.27;2.30;;;12.20;99.90;;;;;;5023349;28;20208;-76
2022/12/03 05:36:20;;;;;;;14.47;2.40;;;12.30;99.90;;;;;;5025388;28;20184;-76
2022/12/03 05:38:47;;;;;;;7.13;2.10;;;12.20;99.90;;;;;;5053291;28;20927;-76
2022/12/03 05:43:59;;;;;;;16.37;2.20;;;12.30;99.90;;;;;;5026945;28;20227;-76
2022/12/03 05:46:26;;;;;;;13.90;2.23;;;12.30;99.90;;;;;;5026761;28;20297;-76
2022/12/03 05:48:53;;;;;;;8.63;1.77;;;12.30;99.90;;;;;;5026296;28;20665;-76
2022/12/03 05:51:20;;;;;;;12.10;2.20;;;12.40;99.90;;;;;;5017218;28;20606;-76
2022/12/03 05:53:48;;;;;;;8.27;2.10;;;12.40;99.90;;;;;;5042859;28;20199;-76
2022/12/03 05:56:14;;;;;;;11.53;2.20;;;12.40;99.90;;;;;;5028502;28;20180;-76
2022/12/03 05:58:41;;;;;;;8.43;1.73;;;12.50;99.90;;;;;;5019953;28;20231;-76
2022/12/03 06:01:07;;;;;;;14.93;2.10;;;12.50;99.90;;;;;;5022774;28;20208;-76
2022/12/03 06:03:33;;;;;;;7.53;1.60;;;12.50;99.90;;;;;;5025929;28;20287;-76
2022/12/03 06:06:00;;;;;;;8.27;1.97;;;12.50;99.90;;;;;;5019203;28;20647;-76
2022/12/03 06:08:27;;;;;;;11.97;2.20;;;12.60;99.90;;;;;;5033565;28;20207;-76
2022/12/03 06:10:53;;;;;;;12.57;2.23;;;12.60;99.90;;;;;;5025578;28;20207;-76
2022/12/03 06:13:20;;;;;;;9.60;2.00;;;12.70;99.90;;;;;;5038667;28;20281;-76
2022/12/03 06:15:48;;;;;;;11.00;2.00;;;12.70;99.90;;;;;;5026818;28;20218;-76
2022/12/03 06:18:14;;;;;;;8.27;1.90;;;12.70;99.90;;;;;;5024963;28;20192;-76
2022/12/03 06:20:41;;;;;;;12.00;1.90;;;12.80;99.90;;;;;;5018200;28;20202;-76
2022/12/03 06:23:07;;;;;;;12.47;2.10;;;12.90;99.90;;;;;;5022538;28;20188;-76
2022/12/03 06:25:34;;;;;;;9.07;1.90;;;13.00;99.90;;;;;;5028128;28;20196;-76
2022/12/03 06:28:01;;;;;;;9.37;1.77;;;13.00;99.90;;;;;;5040417;28;20285;-76
2022/12/03 06:30:27;;;;;;;12.07;2.37;;;13.00;99.90;;;;;;5028012;28;20184;-76
2022/12/03 06:32:55;;;;;;;11.80;2.37;;;13.10;99.90;;;;;;5021840;28;20569;-76
2022/12/03 06:35:21;;;;;;;8.20;1.90;;;13.10;99.90;;;;;;5007140;28;20212;-76
2022/12/03 06:37:47;;;;;;;12.07;1.97;;;13.20;99.90;;;;;;5021806;28;20184;-76
2022/12/03 06:40:15;;;;;;;10.00;2.30;;;13.20;99.90;;;;;;5020100;28;20192;-76
2022/12/03 06:42:42;;;;;;;13.83;2.20;;;13.20;99.90;;;;;;5043257;28;20242;-76
2022/12/03 06:45:09;;;;;;;9.40;2.27;;;13.30;99.90;;;;;;5025209;28;20254;-76
2022/12/03 06:47:36;;;;;;;10.27;1.97;;;13.30;99.90;;;;;;5002539;28;20565;-76
2022/12/03 06:50:04;;;;;;;11.47;2.60;;;13.30;99.90;;;;;;5021873;28;20668;-76
2022/12/03 06:52:31;;;;;;;14.67;2.40;;;13.40;99.90;;;;;;5009395;28;20219;-76
2022/12/03 06:54:58;;;;;;;10.57;2.37;;;13.40;99.90;;;;;;5001523;28;20755;-76
2022/12/03 06:57:24;;;;;;;10.23;2.23;;;13.40;99.90;;;;;;5024543;28;20199;-76
2022/12/03 06:59:50;;;;;;;10.83;2.77;;;13.50;99.90;;;;;;5022850;28;20192;-76
2022/12/03 07:02:17;;;;;;;12.20;2.20;;;13.50;99.90;;;;;;5041175;28;20188;-76
2022/12/03 07:04:43;;;;;;;12.63;2.57;;;13.50;99.90;;;;;;5041886;28;20203;-76
2022/12/03 07:07:10;;;;;;;14.90;2.90;;;13.60;99.90;;;;;;5026555;28;20215;-76
2022/12/03 07:09:36;;;;;;;14.60;2.33;;;13.60;99.90;;;;;;5029053;28;20196;-76
2022/12/03 07:12:03;;;;;;;12.00;2.50;;;13.60;99.90;;;;;;5026696;28;20638;-76
2022/12/03 07:14:30;;;;;;;8.50;2.17;;;13.70;99.90;;;;;;5020526;28;20212;-76
2022/12/03 07:16:58;;;;;;;10.10;2.10;;;13.70;99.90;;;;;;5018613;28;20207;-76
2022/12/03 07:19:25;;;;;;;11.17;2.67;;;13.70;99.90;;;;;;5030415;28;20189;-76
2022/12/03 07:21:51;;;;;;;9.23;2.40;;;13.80;99.90;;;;;;5024194;28;20183;-76
2022/12/03 07:24:18;;;;;;;16.23;2.43;;;13.90;99.90;;;;;;5007464;28;20188;-76
2022/12/03 07:26:44;;;;;;;11.70;2.30;;;14.10;99.90;;;;;;5020803;28;20208;-76
2022/12/03 07:29:10;;;;;;;14.27;2.40;;;14.30;99.90;;;;;;5014858;28;20737;-76
2022/12/03 07:31:37;;;;;;;9.43;2.30;;;14.40;99.90;;;;;;5014589;28;20208;-76
2022/12/03 07:34:03;;;;;;;12.90;2.53;;;14.30;99.90;;;;;;5025794;28;20359;-76
2022/12/03 07:36:29;;;;;;;8.90;2.53;;;14.30;99.90;;;;;;5026662;28;20386;-76
2022/12/03 07:38:56;;;;;;;15.87;2.70;;;14.20;99.90;;;;;;5036518;28;20187;-76
2022/12/03 07:41:23;;;;;;;11.17;2.27;;;14.10;99.90;;;;;;5020125;28;20688;-76
2022/12/03 07:43:49;;;;;;;13.87;2.30;;;14.10;99.90;;;;;;5029534;28;20203;-75
2022/12/03 07:46:16;;;;;;;14.10;2.20;;;14.10;99.90;;;;;;5054184;28;20188;-76
2022/12/03 07:48:42;;;;;;;15.60;2.33;;;14.10;99.90;;;;;;5038946;28;20190;-75
2022/12/03 07:51:09;;;;;;;14.37;3.37;;;14.10;99.90;;;;;;5010546;28;20764;-76
2022/12/03 07:53:35;;;;;;;9.27;2.30;;;14.20;99.90;;;;;;5031836;28;20271;-76
2022/12/03 07:56:04;;;;;;;9.77;2.20;;;14.20;99.90;;;;;;5029036;28;20242;-76
2022/12/03 07:58:31;;;;;;;13.57;2.37;;;14.20;99.90;;;;;;5021055;28;20211;-76
2022/12/03 08:00:57;;;;;;;13.80;2.43;;;14.20;99.90;;;;;;5024628;28;20751;-76
2022/12/03 08:03:24;;;;;;;12.77;2.43;;;14.30;99.90;;;;;;5030340;28;20200;-76
2022/12/03 08:05:51;;;;;;;10.33;2.20;;;14.30;99.90;;;;;;5024232;28;20188;-76
2022/12/03 08:08:17;;;;;;;10.17;2.27;;;14.30;99.90;;;;;;5023704;28;20203;-76
2022/12/03 08:10:44;;;;;;;14.50;2.90;;;14.30;99.90;;;;;;5025403;28;20193;-76
2022/12/03 08:13:16;;;;;;;7.80;1.80;;;14.30;99.90;;;;;;5021067;28;20717;-76
2022/12/03 08:15:43;;;;;;;15.27;2.77;;;14.40;99.90;;;;;;5028678;28;20212;-76
2022/12/03 08:18:20;;;;;;;11.50;2.30;;;14.50;99.90;;;;;;5007939;28;20185;-76
2022/12/03 08:20:50;;;;;;;16.83;3.27;;;14.50;99.90;;;;;;5029557;28;20187;-76
2022/12/03 08:23:22;;;;;;;15.37;2.50;;;14.50;99.90;;;;;;5023325;28;20188;-76
2022/12/03 08:25:51;;;;;;;14.70;2.43;;;14.60;99.90;;;;;;5006524;28;20282;-76
2022/12/03 08:28:25;;;;;;;12.50;2.30;;;14.70;99.90;;;;;;5016010;28;20222;-76
2022/12/03 08:31:24;;;;;;;13.83;2.13;;;14.70;99.90;;;;;;5023675;28;20199;-76
2022/12/03 08:33:58;;;;;;;11.53;2.00;;;14.90;99.90;;;;;;5022848;28;20203;-76
2022/12/03 08:36:31;;;;;;;12.00;2.70;;;14.90;99.90;;;;;;5024437;28;20195;-76
2022/12/03 08:39:32;;;;;;;20.13;2.70;;;14.90;99.90;;;;;;5021192;28;20193;-76
2022/12/03 08:45:29;;;;;;;16.60;2.20;;;15.10;99.90;;;;;;4991846;28;21008;-76
2022/12/03 08:48:26;;;;;;;8.57;2.37;;;15.10;99.90;;;;;;5011359;28;20721;-76
2022/12/03 08:50:57;;;;;;;11.17;2.40;;;15.20;99.90;;;;;;4984685;28;20213;-76
2022/12/03 08:53:41;;;;;;;19.73;2.47;;;15.20;99.90;;;;;;4999698;28;20305;-76
2022/12/03 08:56:27;;;;;;;8.63;2.03;;;15.20;99.90;;;;;;4997681;28;20212;-76
2022/12/03 08:58:59;;;;;;;7.63;2.27;;;15.30;99.90;;;;;;4986779;28;20215;-76
2022/12/03 09:01:46;;;;;;;13.57;2.60;;;15.30;99.90;;;;;;5020352;28;20308;-76
2022/12/03 09:04:37;;;;;;;14.97;2.20;;;15.40;99.90;;;;;;4999906;28;20184;-76
2022/12/03 09:07:04;;;;;;;15.40;2.80;;;15.40;99.90;;;;;;5021838;28;20318;-76
2022/12/03 09:09:31;;;;;;;11.57;3.27;;;15.50;99.90;;;;;;5016287;28;20196;-76
2022/12/03 09:11:58;;;;;;;14.67;4.63;;;15.60;99.90;;;;;;5019944;28;20208;-76
2022/12/03 09:14:24;;;;;;;16.37;2.60;;;15.60;99.90;;;;;;5017630;28;20307;-76
2022/12/03 09:16:54;;;;;;;11.70;2.60;;;15.60;99.90;;;;;;5016620;28;20188;-76
2022/12/03 09:19:29;;;;;;;19.37;2.60;;;15.70;99.90;;;;;;5019705;28;20192;-76
2022/12/03 09:21:56;;;;;;;20.67;3.47;;;15.70;99.90;;;;;;5023872;28;20218;-76
2022/12/03 09:24:23;;;;;;;14.70;2.60;;;15.80;99.90;;;;;;4997247;28;20672;-76
2022/12/03 09:26:49;;;;;;;17.40;3.33;;;15.90;99.90;;;;;;5020809;28;20181;-76
2022/12/03 09:29:16;;;;;;;18.70;3.13;;;15.90;99.90;;;;;;5051968;28;20193;-76
2022/12/03 09:31:42;;;;;;;12.13;2.70;;;15.90;99.90;;;;;;5021413;28;20714;-76
2022/12/03 09:34:10;;;;;;;17.87;3.07;;;16.00;99.90;;;;;;5020833;28;20207;-76
2022/12/03 09:36:36;;;;;;;13.97;3.30;;;16.10;99.90;;;;;;5018358;28;20284;-76
2022/12/03 09:39:03;;;;;;;15.60;3.40;;;16.10;99.90;;;;;;5023655;28;20176;-76
2022/12/03 09:41:31;;;;;;;21.40;3.17;;;16.20;99.90;;;;;;5026452;28;20191;-76
2022/12/03 09:43:57;;;;;;;9.37;2.53;;;16.20;99.90;;;;;;5021557;28;20551;-76
2022/12/03 09:46:24;;;;;;;10.03;2.30;;;16.30;99.90;;;;;;5023048;28;20195;-76
2022/12/03 09:48:50;;;;;;;13.10;2.47;;;16.30;99.90;;;;;;5006318;28;20188;-76
2022/12/03 09:51:17;;;;;;;11.43;2.77;;;16.30;99.90;;;;;;5024242;28;20215;-77
2022/12/03 09:53:46;;;;;;;12.10;2.20;;;16.40;99.90;;;;;;5023571;28;20191;-76
2022/12/03 09:56:22;;;;;;;16.90;2.73;;;16.50;99.90;;;;;;5009776;28;20181;-76
2022/12/03 09:58:49;;;;;;;14.63;3.23;;;16.50;99.90;;;;;;5025440;28;20191;-76
2022/12/03 10:01:17;;;;;;;17.03;2.90;;;16.50;99.90;;;;;;5020072;28;20200;-76
2022/12/03 10:03:50;;;;;;;19.43;3.30;;;16.60;99.90;;;;;;5024952;28;20271;-76
2022/12/03 10:06:22;;;;;;;8.80;2.47;;;16.50;99.90;;;;;;5017183;28;20193;-76
2022/12/03 10:08:53;;;;;;;12.03;2.37;;;16.50;99.90;;;;;;5010136;28;20204;-76
2022/12/03 10:11:25;;;;;;;14.10;2.57;;;16.40;99.90;;;;;;4994552;28;20893;-76
2022/12/03 10:13:55;;;;;;;12.33;2.60;;;16.40;99.90;;;;;;5023886;28;20188;-76
2022/12/03 10:16:23;;;;;;;13.27;2.30;;;16.40;99.90;;;;;;5024648;28;20189;-76
2022/12/03 10:18:56;;;;;;;8.60;2.10;;;16.40;99.90;;;;;;5016277;28;20215;-76
2022/12/03 10:21:36;;;;;;;9.57;2.40;;;16.40;99.90;;;;;;5031479;28;20621;-76
2022/12/03 10:24:24;;;;;;;13.93;2.30;;;16.40;99.90;;;;;;5013153;28;20744;-76
2022/12/03 10:26:54;;;;;;;8.33;2.17;;;16.40;99.90;;;;;;4996861;28;20197;-76
2022/12/03 10:29:31;;;;;;;14.07;2.73;;;16.40;99.90;;;;;;5030836;28;21053;-76
2022/12/03 10:32:10;;;;;;;16.30;2.53;;;16.50;99.90;;;;;;5002436;28;20622;-76
2022/12/03 10:34:40;;;;;;;13.97;2.60;;;16.50;99.90;;;;;;5021512;28;20862;-77
2022/12/03 10:37:22;;;;;;;11.83;2.30;;;16.50;99.90;;;;;;4999050;28;21056;-76
2022/12/03 10:40:04;;;;;;;19.47;3.00;;;16.60;99.90;;;;;;5037309;28;20238;-77
2022/12/03 10:42:45;;;;;;;15.70;2.60;;;16.70;99.90;;;;;;5018191;28;20261;-77
2022/12/03 10:45:24;;;;;;;11.27;2.00;;;16.90;99.90;;;;;;5014454;28;20231;-76
2022/12/03 10:48:26;;;;;;;10.00;2.27;;;17.00;99.90;;;;;;5029175;28;20192;-76
2022/12/03 10:51:03;;;;;;;9.13;2.13;;;17.20;99.90;;;;;;5024280;28;20210;-77
2022/12/03 11:34:33;;;;;;;10.70;2.40;;;18.30;99.90;;;;;;5015634;28;20180;-77
2022/12/03 11:37:12;;;;;;;22.50;2.27;;;18.30;99.90;;;;;;5012710;28;20250;-77
2022/12/03 11:39:50;;;;;;;9.53;2.30;;;18.30;99.90;;;;;;5002771;28;20181;-77
2022/12/03 11:42:25;;;;;;;12.10;2.60;;;18.30;99.90;;;;;;5019090;28;20270;-77
2022/12/03 11:45:04;;;;;;;9.53;2.27;;;18.30;99.90;;;;;;5032089;28;20184;-77
2022/12/03 11:47:38;;;;;;;10.17;2.53;;;18.30;99.90;;;;;;5021438;28;20200;-77
2022/12/03 11:50:26;;;;;;;12.40;2.87;;;18.30;99.90;;;;;;5022851;28;20665;-77
2022/12/03 11:53:00;;;;;;;11.40;2.43;;;18.20;99.90;;;;;;5027570;28;20540;-77
2022/12/03 11:55:43;;;;;;;10.17;2.70;;;18.20;99.90;;;;;;5026322;28;20576;-76
2022/12/03 11:58:26;;;;;;;12.10;2.87;;;18.30;99.90;;;;;;5028635;28;20230;-77
2022/12/03 12:00:59;;;;;;;7.60;2.20;;;18.20;99.90;;;;;;5027426;28;20199;-77
2022/12/03 12:03:40;;;;;;;7.43;2.07;;;18.10;99.90;;;;;;5047852;28;20271;-77
2022/12/03 12:06:20;;;;;;;8.03;2.00;;;18.10;99.90;;;;;;5001543;28;20275;-77
2022/12/03 12:08:50;;;;;;;13.83;2.43;;;18.10;99.90;;;;;;5017761;28;20196;-76
2022/12/03 12:11:28;;;;;;;7.57;2.00;;;18.10;99.90;;;;;;5024868;28;20275;-77
2022/12/03 12:14:04;;;;;;;7.00;1.87;;;18.10;99.90;;;;;;5028310;28;20681;-77
2022/12/03 12:16:49;;;;;;;6.27;1.93;;;18.10;99.90;;;;;;5029479;28;20194;-77
2022/12/03 12:19:41;;;;;;;10.20;2.07;;;18.00;99.90;;;;;;5015839;28;20181;-77
2022/12/03 12:22:23;;;;;;;7.30;2.30;;;18.00;99.90;;;;;;5031144;28;20245;-77
2022/12/03 12:25:03;;;;;;;6.50;2.23;;;18.00;99.90;;;;;;5018779;28;20212;-77
2022/12/03 12:27:34;;;;;;;6.40;1.90;;;18.00;99.90;;;;;;5040432;28;20664;-77
2022/12/03 12:30:17;;;;;;;9.07;2.03;;;17.90;99.90;;;;;;5027155;28;20204;-77
2022/12/03 12:32:58;;;;;;;9.67;1.90;;;17.90;99.90;;;;;;5015936;28;20183;-76
2022/12/03 12:35:28;;;;;;;12.37;2.60;;;17.80;99.90;;;;;;5025790;28;20861;-77
2022/12/03 12:38:20;;;;;;;11.73;2.63;;;17.80;99.90;;;;;;5035679;28;20185;-77
2022/12/03 12:40:49;;;;;;;10.60;2.63;;;17.80;99.90;;;;;;5017158;28;20282;-77
2022/12/03 12:43:26;;;;;;;18.80;3.03;;;17.70;99.90;;;;;;5035011;28;20183;-77
2022/12/03 12:45:55;;;;;;;10.77;2.20;;;17.70;99.90;;;;;;5040555;28;20183;-76
2022/12/03 12:48:26;;;;;;;11.70;2.57;;;17.70;99.90;;;;;;5022543;28;20185;-77
2022/12/03 12:51:11;;;;;;;12.07;2.83;;;17.60;99.90;;;;;;5013574;28;20276;-76
2022/12/03 12:53:44;;;;;;;8.50;2.00;;;17.60;99.90;;;;;;5004315;28;20238;-76
2022/12/03 12:56:30;;;;;;;15.90;2.83;;;17.60;99.90;;;;;;5019124;28;20612;-76
2022/12/03 12:59:12;;;;;;;11.57;2.50;;;17.60;99.90;;;;;;5026476;28;20636;-76
2022/12/03 13:01:42;;;;;;;15.20;3.73;;;17.50;99.90;;;;;;5029504;28;20263;-76
2022/12/03 13:04:22;;;;;;;12.97;2.60;;;17.40;99.90;;;;;;5028732;28;20191;-76
2022/12/03 13:06:52;;;;;;;13.03;2.93;;;17.30;99.90;;;;;;5024943;28;20600;-76
2022/12/03 13:09:24;;;;;;;8.30;2.60;;;17.30;99.90;;;;;;5019463;28;20196;-76
2022/12/03 13:12:02;;;;;;;8.10;2.53;;;17.30;99.90;;;;;;5019956;28;20197;-76
2022/12/03 13:14:36;;;;;;;12.40;2.30;;;17.30;99.90;;;;;;5010018;28;20208;-76
2022/12/03 13:17:23;;;;;;;10.73;2.50;;;17.20;99.90;;;;;;5001841;28;20214;-76
2022/12/03 13:19:50;;;;;;;12.00;2.13;;;17.20;99.90;;;;;;5022970;28;20235;-76
2022/12/03 13:22:24;;;;;;;7.50;2.40;;;17.10;99.90;;;;;;5022294;28;20189;-76
2022/12/03 13:24:56;;;;;;;11.77;2.60;;;17.10;99.90;;;;;;5012475;28;20565;-76
2022/12/03 13:27:31;;;;;;;9.63;2.70;;;16.90;99.90;;;;;;5013390;28;20192;-76
2022/12/03 13:30:15;;;;;;;15.33;2.90;;;16.90;99.90;;;;;;5028519;28;20201;-76
2022/12/03 13:32:43;;;;;;;11.17;2.30;;;16.90;99.90;;;;;;5017625;28;20188;-76
2022/12/03 13:35:21;;;;;;;11.07;2.70;;;16.90;99.90;;;;;;5010530;28;20215;-76
2022/12/03 13:37:48;;;;;;;16.23;2.40;;;16.90;99.90;;;;;;5029041;28;20188;-77
2022/12/03 13:40:33;;;;;;;9.63;2.40;;;16.80;99.90;;;;;;5023701;28;20199;-76
2022/12/03 13:43:10;;;;;;;8.63;2.50;;;16.80;99.90;;;;;;5017836;28;20365;-76
2022/12/03 13:45:40;;;;;;;16.70;3.00;;;16.80;99.90;;;;;;5029145;28;20196;-76
2022/12/03 13:48:34;;;;;;;13.23;2.90;;;16.80;99.90;;;;;;5027482;28;20242;-76
2022/12/03 13:51:26;;;;;;;13.00;2.40;;;16.70;99.90;;;;;;5017849;28;20208;-76
2022/12/03 13:53:53;;;;;;;10.83;3.00;;;16.70;99.90;;;;;;5032232;28;20197;-77
2022/12/03 13:56:29;;;;;;;10.77;2.57;;;16.60;99.90;;;;;;5023629;28;20647;-76
2022/12/03 13:58:58;;;;;;;4.97;2.30;;;16.60;99.90;;;;;;5017712;28;20297;-76
2022/12/03 14:01:27;;;;;;;11.30;2.70;;;16.60;99.90;;;;;;5046495;28;20193;-76